الصفحة الرئيسية
METAR-TAF:

METAR-TAF

مطار :

غراند براري, ألبرتا, كندا

دائرة عرض: 55-11N, خط طول: 118-53W, ارتفاع: 666 متر

مراقبة الطقس الحالي

تاريخ ووقت الإصدار 1ساعة و 4 دقيقة قبل الساعة 03:00UTC
ريح 5 عقدة من الغرب/الجنوب الغربي
درجة الحرارة -5°درجة مئوية
الرطوبة 68%
ضغط 1015 hPa
الرؤية: 40.2 كم
غيوم مفككة على ارتفاع 18000 قدم

METAR: CYQU 060300Z 25005KT 25SM BKN180 M05/M10 A2996 RMK AC6 SLP194

زمن: 21:04 (04:04 UTC)

توقعات

تاريخ ووقت الإصدار 3ساعات و 26 دقيقة قبل الساعة 00:38UTC
التوقعات صالحة من06 الساعة 01 UTC إلى 06 الساعة 13 UTC
ريح 8 عقدة من الغرب/الجنوب الغربي
الرؤية: 10 كم
غيوم مفككة على ارتفاع 20000 قدم

TAF: CYQU 060038Z 0601/0613 25008KT P6SM BKN200 RMK NXT FCST BY 060700Z

أرصاد الطقس والتوقعات من أكثر من 4000 مطار (تقارير الطقس للمطار METAR والتنبؤ بالطقس بالمطارTAF).

المحطات المتاحة هي النقط الصفراء والحمراء على الخريطة.

حرك المؤشر فوق النقطة لمعرفة اسم المحطة.

ثم انقر لمعرفة أرصاد وتوقعات الطقس.

لتغيير الخارطة: اضغط على الأزرار الخضراء مع رمز الصليب الأسود للتكبير. على الزر الأخضر مع شرطة للتصغير، أو على الأسهم الخضراء للخرائط المجاورة.


METAR-TAF: